الصفحة الرئيسية
METAR-TAF:

METAR-TAF

مطار :

بافلودار, كازاخستان

دائرة عرض: 52-11-42N, خط طول: 077-04-26E, ارتفاع: 125 متر

مراقبة الطقس الحالي

تاريخ ووقت الإصدار 21 دقيقة قبل الساعة 23:30UTC
ريح 6 عقدة من الغرب
درجة الحرارة 9°درجة مئوية
الرطوبة 93%
ضغط 1021 hPa
الرؤية 10 كم أو أكثر
غيوم متفرقة على ارتفاع 4700 قدم
ملبد بالغيوم على ارتفاع 8500 قدم

METAR: UASP 242330Z 26003MPS 9999 SCT047 OVC085 09/08 Q1021 R21/0///70 NOSIG RMK QFE755/1006

زمن: 05:51 (23:51 UTC)

توقعات

تاريخ ووقت الإصدار 3ساعات و 51 دقيقة قبل الساعة 20:00UTC
التوقعات صالحة من24 الساعة 21 UTC إلى 25 الساعة 06 UTC
ريح 10 عقدة من الغرب/الجنوب الغربي
الرؤية: 3000 متر
غيوم متفرقة على ارتفاع 700 قدم
غيوم مفككة على ارتفاع 2000 قدم
غشاء, دخان
مؤقت
من 24 الساعة 21 UTC إلى 25 الساعة 03 UTC
الرؤية: 0500 متر
على ارتفاع 200 قدم
ضباب

TAF: UASP 242000Z 2421/2506 24005MPS 3000 BR FU SCT007 BKN020 TEMPO 2421/2503 0500 FG VV002

أرصاد الطقس والتوقعات من أكثر من 4000 مطار (تقارير الطقس للمطار METAR والتنبؤ بالطقس بالمطارTAF).

المحطات المتاحة هي النقط الصفراء والحمراء على الخريطة.

حرك المؤشر فوق النقطة لمعرفة اسم المحطة.

ثم انقر لمعرفة أرصاد وتوقعات الطقس.

لتغيير الخارطة: اضغط على الأزرار الخضراء مع رمز الصليب الأسود للتكبير. على الزر الأخضر مع شرطة للتصغير، أو على الأسهم الخضراء للخرائط المجاورة.


METAR-TAF: